Airfield :
LOGIN :

Register | Disclaimer

   EN    FR    IT 

 










Legend :    VFR   Marginal VFR   IFR   Intensive IFR   Very Intensive IFR
Visi :
Ceiling :
>= 8 km
>= 3000ft
5 to 8 km
1000 to 3000 ft
1500m to 5 km
500 to 1000 ft
800 to 1500m
200 to 500 ft
< 800m
< 200 ft
Symbols :   Thunderstorms  Fog  Heavy snow  Heavy precipitations  Wind > 20 kt
SIGMETs :     Misc.  Thunderstorms  Icing  Turbulence  Mountain Waves  Volcanic Ashes






- Airport Elevation : 779 ft
- IATA code : CMF


LFLB - Chambery / Aix-Les-Bains

CURRENT METAR :
  • 150530Z AUTO VRB02KT 4600 RA BR FEW058/// BKN074/// OVC088/// ///TCU 15/14 Q1009 TEMPO VRB15G30KT 1200 TSRA BKN070CB

EXPIRED METARs :
  • 150500Z AUTO 36004KT 280V050 6000 -RA FEW042/// SCT072/// OVC090/// ///TCU 14/13 Q1008 TEMPO VRB15G30KT 3000 TSRA SCT020 BKN070CB
  • 150430Z AUTO VRB02KT 7000 -RA FEW052/// BKN074/// BKN090/// ///TCU 14/13 Q1008 TEMPO VRB15G30KT 3000 TSRA SCT020 BKN070CB
  • 150400Z AUTO VRB02KT 9999 FEW054 OVC100 14/13 Q1007 TEMPO VRB15G30KT 3000 TSRA SCT020 BKN070CB
  • 150330Z AUTO VRB03KT 9999 BKN088/// OVC110/// ///TCU 14/13 Q1007 TEMPO VRB15G30KT 3000 TSRA SCT020 BKN070CB
  • 150300Z AUTO 26003KT 190V300 CAVOK 14/13 Q1008 NOSIG

TAF TAF LFLB
Valid from the 15 at 06:00 until the 16 at 06:00 UTC


150500Z 1506/1606 VRB02KT 9999 SCT030 BKN060
TEMPO 1506/1518 VRB12KT 3000 RA BKN009
PROB40
TEMPO 1506/1508 VRB15G30KT 1200 TSRA BKN070CB
PROB40
TEMPO 1511/1517 SCT020CB
PROB40
TEMPO 1603/1606 3000 MIFG



MET'MAP, your aeronautical weather chart ! - Copyright ORBIFLY December 2007 - Disclaimer

ORBIFLY MET'MAP TEAM :

Programming & Development : Alexandra Zaïnal
Concept & Development : Baudouin d'Aumeries
Co-Development & Prog : Marc-Olivier Méhu
Technical & hardware support : Manuel Goepfert

Contact : metmap@orbifly.com




SOURCES & CREDITS :

   NOAA